Terminal Aerodrome Forecast
Issued by NWS

Home | Current Version | Previous Version | Text Only | Print | Product List | Glossary On
Versions: 1 2 3 4 5 6 7 8 9 10 11 12
043
FTUS45 KABQ 120529
TAFROW
TAF
KROW 120529Z 1206/1306 33006KT P6SM SKC
     FM121900 15006KT P6SM SKC=

USA.gov is the U.S. government's official web portal to all federal, state and local government web resources and services.